KGUS/GUS METAR and TAF weather

Enter ICAO airport designator
Station Type Date Time Source
KGUS METAR 2021/10/24 20:56 UTC NOAA

KGUS 242056Z AUTO 08007KT 10SM -RA OVC006 12/11 A2982 RMK AO2 DZB53E55RAB55 CIG 005 RWY23 SLPNO P0000 60002 T01240113 57018 $


Station Type Date Time Source
KGUS Decoded METAR 2021/10/24 20:56 UTC NOAA

Grissom Air Force Base / Peru, IN, United States (KGUS) 40-39N 086-09W
Oct 24, 2021 - 04:56 PM EDT / 2021.10.24 2056 UTC
Wind: from the E (080 degrees) at 8 MPH (7 KT):0
Visibility: 10 mile(s):0
Sky conditions: overcast
Weather: light rain
Precipitation last hour: A trace
Temperature: 54.3 F (12.4 C)
Dew Point: 52.3 F (11.3 C)
Relative Humidity: 92%
Pressure (altimeter): 29.82 in. Hg (1009 hPa)
Pressure tendency: 0.05 inches (1.8 hPa) lower than three hours ago
ob: KGUS 242056Z AUTO 08007KT 10SM -RA OVC006 12/11 A2982 RMK AO2 DZB53E55RAB55 CIG 005 RWY23 SLPNO P0000 60002 T01240113 57018
cycle: 21

Station Type Date Time Source
KGUS TAF 2021/10/24 21:09 UTC NOAA

TAF TAF KGUS 242100Z 2421/2603 09009KT 4800 -RA BR OVC006 510013 QNH2980INS
TEMPO 2421/2503 VCTS OVC015CB
BECMG 2501/2503 09009KT 4800 -RA BR SCT005 OVC008 WS020/22040KT QNH2965INS
TEMPO 2503/2508 VCTS OVC010CB
BECMG 2509/2510 12009KT 4800 RA BR OVC002 QNH2965INS
BECMG 2510/2511 12010G18KT 4800 RA BR OVC007 QNH2962INS
BECMG 2514/2515 23015G20KT 8000 -RA OVC014 QNH2965INS
BECMG 2519/2520 36020G25KT 8000 BR OVC008 510013 QNH2985INS
BECMG 2602/2603 35012G18KT 8000 BR OVC009 510023 QNH2991INS TX14/2511Z TN09/2520Z LAST NO
AMDS AFT 2503 NEXT 2513

Example: see airport list